Time;durP1;ratioP1;P1;durP2;ratioP2;P2;SDS_P1;SDS_P2;PMS_P1;PMS_P2;Temp;Humidity;BMP_temperature;BMP_pressure;BME280_temperature;BME280_humidity;BME280_pressure;Samples;Min_cycle;Max_cycle;Signal;HPM_P1;HPM_P2
2022/06/13 00:00:59;;;;;;;20.92;11.28;;;;;;;;;;1814824;78;21194;-69
2022/06/13 00:03:30;;;;;;;19.98;11.22;;;;;;;;;;1823184;78;21249;-69
2022/06/13 00:06:08;;;;;;;18.05;10.23;;;;;;;;;;1810570;77;21186;-68
2022/06/13 00:08:39;;;;;;;22.75;10.65;;;;;;;;;;1808132;78;21256;-70
2022/06/13 00:11:13;;;;;;;21.33;11.40;;;;;;;;;;1819298;78;21223;-71
2022/06/13 00:13:52;;;;;;;19.12;10.60;;;;;;;;;;1816196;78;21075;-70
2022/06/13 00:16:26;;;;;;;21.97;11.10;;;;;;;;;;1818132;77;21234;-72
2022/06/13 00:18:58;;;;;;;24.75;11.57;;;;;;;;;;1801674;77;21593;-70
2022/06/13 00:21:31;;;;;;;23.65;11.18;;;;;;;;;;1790365;79;21696;-72
2022/06/13 00:24:04;;;;;;;20.00;10.28;;;;;;;;;;1774863;80;21251;-81
2022/06/13 00:26:37;;;;;;;19.67;10.43;;;;;;;;;;1776063;79;21230;-81
2022/06/13 00:29:08;;;;;;;18.48;10.65;;;;;;;;;;1802911;79;21143;-81
2022/06/13 00:31:39;;;;;;;24.35;9.98;;;;;;;;;;1803231;77;21170;-81
2022/06/13 00:34:10;;;;;;;14.90;8.53;;;;;;;;;;1802470;77;21150;-81
2022/06/13 00:36:41;;;;;;;18.70;10.00;;;;;;;;;;1795528;79;21148;-81
2022/06/13 00:39:21;;;;;;;19.50;9.70;;;;;;;;;;1795343;79;21147;-81
2022/06/13 00:41:53;;;;;;;18.57;9.60;;;;;;;;;;1783733;79;21168;-80
2022/06/13 00:44:25;;;;;;;19.42;10.30;;;;;;;;;;1795714;79;21111;-81
2022/06/13 00:46:56;;;;;;;15.72;9.98;;;;;;;;;;1764332;80;21175;-81
2022/06/13 00:49:29;;;;;;;16.95;9.30;;;;;;;;;;1799680;79;21149;-80
2022/06/13 00:52:01;;;;;;;18.25;9.63;;;;;;;;;;1816302;77;21189;-81
2022/06/13 00:54:33;;;;;;;16.52;9.40;;;;;;;;;;1818646;77;21096;-80
2022/06/13 00:57:08;;;;;;;16.75;9.80;;;;;;;;;;1837084;77;21162;-80
2022/06/13 00:59:39;;;;;;;20.77;9.95;;;;;;;;;;1830954;77;21230;-80
2022/06/13 01:02:11;;;;;;;17.55;9.48;;;;;;;;;;1839325;76;21157;-81
2022/06/13 01:04:42;;;;;;;18.98;9.65;;;;;;;;;;1858104;76;21188;-81
2022/06/13 01:07:13;;;;;;;17.35;9.03;;;;;;;;;;1844619;76;21596;-80
2022/06/13 01:12:16;;;;;;;13.30;7.78;;;;;;;;;;1795906;78;21148;-81
2022/06/13 01:14:49;;;;;;;15.65;8.90;;;;;;;;;;1804298;78;21829;-81
2022/06/13 01:17:22;;;;;;;16.20;8.93;;;;;;;;;;1794280;79;21152;-81
2022/06/13 01:19:55;;;;;;;18.40;10.10;;;;;;;;;;1786454;79;21173;-82
2022/06/13 01:22:27;;;;;;;18.07;9.33;;;;;;;;;;1838849;77;21156;-80
2022/06/13 01:25:00;;;;;;;15.78;9.18;;;;;;;;;;1842470;76;21120;-81
2022/06/13 01:27:34;;;;;;;15.78;9.25;;;;;;;;;;1829468;76;21671;-80
2022/06/13 01:30:06;;;;;;;17.80;9.55;;;;;;;;;;1851243;76;21176;-82
2022/06/13 01:32:38;;;;;;;17.85;9.25;;;;;;;;;;1846766;77;21148;-80
2022/06/13 01:35:10;;;;;;;17.73;8.90;;;;;;;;;;1847251;76;21134;-80
2022/06/13 01:37:42;;;;;;;16.62;9.25;;;;;;;;;;1844437;76;21181;-81
2022/06/13 01:40:13;;;;;;;15.58;8.95;;;;;;;;;;1834125;77;21200;-80
2022/06/13 01:42:45;;;;;;;16.93;9.05;;;;;;;;;;1786692;78;21135;-80
2022/06/13 01:45:18;;;;;;;16.27;8.80;;;;;;;;;;1799796;79;21100;-80
2022/06/13 01:47:50;;;;;;;19.12;9.58;;;;;;;;;;1787751;79;21146;-80
2022/06/13 01:50:20;;;;;;;14.55;8.75;;;;;;;;;;1797194;78;21185;-81
2022/06/13 01:52:53;;;;;;;16.75;8.90;;;;;;;;;;1783065;79;21268;-81
2022/06/13 01:55:25;;;;;;;16.87;8.95;;;;;;;;;;1781002;79;21234;-82
2022/06/13 01:57:58;;;;;;;16.10;8.95;;;;;;;;;;1799210;77;21115;-81
2022/06/13 02:00:30;;;;;;;15.65;8.30;;;;;;;;;;1797216;78;21245;-81
2022/06/13 02:03:03;;;;;;;13.08;7.53;;;;;;;;;;1792420;78;21170;-80
2022/06/13 02:05:36;;;;;;;16.15;7.65;;;;;;;;;;1787583;79;21202;-81
2022/06/13 02:08:06;;;;;;;14.73;8.15;;;;;;;;;;1793034;78;21139;-82
2022/06/13 02:10:39;;;;;;;15.13;7.53;;;;;;;;;;1774703;79;21142;-81
2022/06/13 02:13:14;;;;;;;18.85;7.83;;;;;;;;;;1791282;79;21179;-82
2022/06/13 02:15:46;;;;;;;16.55;7.85;;;;;;;;;;1825092;77;21173;-86
2022/06/13 02:18:18;;;;;;;15.10;7.58;;;;;;;;;;1828841;77;21248;-82
2022/06/13 02:20:50;;;;;;;12.78;7.17;;;;;;;;;;1793265;78;21255;-82
2022/06/13 02:23:23;;;;;;;12.10;6.70;;;;;;;;;;1782890;80;21273;-81
2022/06/13 02:25:55;;;;;;;15.98;7.10;;;;;;;;;;1799762;79;21263;-82
2022/06/13 02:28:27;;;;;;;10.93;6.90;;;;;;;;;;1804234;79;21228;-82
2022/06/13 02:30:59;;;;;;;15.88;7.78;;;;;;;;;;1795285;79;21136;-80
2022/06/13 02:33:32;;;;;;;13.48;7.55;;;;;;;;;;1791427;79;21130;-81
2022/06/13 02:36:04;;;;;;;15.50;6.78;;;;;;;;;;1795386;79;21202;-82
2022/06/13 02:38:37;;;;;;;13.10;7.87;;;;;;;;;;1804644;79;21152;-80
2022/06/13 02:41:08;;;;;;;13.98;7.30;;;;;;;;;;1842979;76;21136;-80
2022/06/13 02:43:43;;;;;;;12.45;7.30;;;31.80;99.90;;;;;;1810373;78;21577;-82
2022/06/13 02:46:16;;;;;;;13.43;7.37;;;;;;;;;;1795730;78;21701;-81
2022/06/13 02:48:48;;;;;;;14.98;6.60;;;;;;;;;;1799835;79;21090;-80
2022/06/13 02:51:22;;;;;;;13.90;6.92;;;;;;;;;;1787666;79;21211;-81
2022/06/13 02:53:54;;;;;;;14.78;7.25;;;;;;;;;;1797503;79;21194;-81
2022/06/13 02:56:28;;;;;;;12.00;6.95;;;;;;;;;;1796585;79;21175;-82
2022/06/13 02:59:01;;;;;;;10.18;6.50;;;32.70;99.90;;;;;;1771985;79;21109;-82
2022/06/13 03:01:33;;;;;;;16.48;7.15;;;;;;;;;;1793978;79;21098;-82
2022/06/13 03:04:14;;;;;;;11.08;6.33;;;32.80;99.90;;;;;;1829184;77;21162;-82
2022/06/13 03:06:47;;;;;;;15.05;6.87;;;;;;;;;;1780589;79;21189;-82
2022/06/13 03:09:25;;;;;;;14.85;6.30;;;32.70;99.90;;;;;;1785678;79;21121;-81
2022/06/13 03:11:57;;;;;;;13.40;6.78;;;33.00;99.90;;;;;;1786629;79;21142;-82
2022/06/13 03:14:30;;;;;;;14.87;6.17;;;32.70;99.90;;;;;;1804089;78;21262;-82
2022/06/13 03:17:04;;;;;;;11.00;5.28;;;33.00;99.90;;;;;;1793431;78;21140;-83
2022/06/13 03:19:37;;;;;;;12.98;5.40;;;;;;;;;;1798192;78;21159;-81
2022/06/13 03:22:10;;;;;;;13.08;5.70;;;;;;;;;;1793660;79;21204;-82
2022/06/13 03:24:43;;;;;;;13.72;5.80;;;;;;;;;;1808614;79;21124;-81
2022/06/13 03:27:17;;;;;;;9.33;5.10;;;;;;;;;;1802887;79;21304;-81
2022/06/13 03:29:51;;;;;;;10.72;5.87;;;;;;;;;;1812080;78;21223;-82
2022/06/13 03:32:25;;;;;;;10.63;5.92;;;;;;;;;;1823672;77;21152;-83
2022/06/13 03:34:57;;;;;;;12.63;5.87;;;;;;;;;;1802082;79;21246;-81
2022/06/13 03:37:30;;;;;;;10.13;5.50;;;;;;;;;;1778049;79;21096;-82
2022/06/13 03:40:03;;;;;;;14.25;5.40;;;;;;;;;;1783451;80;21241;-81
2022/06/13 03:42:35;;;;;;;10.63;4.90;;;;;;;;;;1811794;78;21198;-81
2022/06/13 03:45:08;;;;;;;12.63;4.83;;;;;;;;;;1774753;80;21168;-83
2022/06/13 03:47:41;;;;;;;15.35;5.10;;;;;;;;;;1802807;79;21158;-80
2022/06/13 03:50:11;;;;;;;9.88;4.95;;;;;;;;;;1802345;77;21148;-80
2022/06/13 03:52:43;;;;;;;11.57;4.55;;;;;;;;;;1805509;77;21587;-80
2022/06/13 03:55:16;;;;;;;8.75;4.08;;;;;;;;;;1807236;79;21147;-82
2022/06/13 03:57:48;;;;;;;8.55;4.75;;;;;;;;;;1843044;76;21215;-82
2022/06/13 04:00:21;;;;;;;13.10;4.92;;;;;;;;;;1790963;79;21266;-82
2022/06/13 04:02:53;;;;;;;8.90;4.45;;;;;;;;;;1770400;79;21210;-81
2022/06/13 04:05:25;;;;;;;10.63;4.72;;;;;;;;;;1778685;80;21084;-81
2022/06/13 04:07:58;;;;;;;12.63;4.92;;;;;;;;;;1805379;79;21169;-82
2022/06/13 04:10:30;;;;;;;14.58;5.47;;;;;;;;;;1799790;79;21779;-81
2022/06/13 04:13:02;;;;;;;9.58;5.15;;;;;;;;;;1791606;79;21135;-80
2022/06/13 04:15:36;;;;;;;11.65;5.12;;;;;;;;;;1796357;79;21247;-81
2022/06/13 04:18:09;;;;;;;11.35;5.15;;;;;;;;;;1767893;80;21138;-82
2022/06/13 04:20:46;;;;;;;10.82;5.10;;;;;;;;;;1779255;78;21210;-81
2022/06/13 04:23:18;;;;;;;8.58;4.85;;;;;;;;;;1775763;78;21169;-82
2022/06/13 04:25:51;;;;;;;8.50;4.60;;;;;;;;;;1783095;80;21301;-82
2022/06/13 04:28:25;;;;;;;7.33;5.08;;;;;;;;;;1784077;78;21324;-82
2022/06/13 04:30:58;;;;;;;12.13;4.55;;;;;;;;;;1783777;78;21749;-82
2022/06/13 04:33:33;;;;;;;10.32;4.62;;;;;;;;;;1826051;77;21334;-82
2022/06/13 04:36:07;;;;;;;9.40;5.30;;;;;;;;;;1769836;80;21615;-81
2022/06/13 04:38:41;;;;;;;11.03;5.00;;;;;;;;;;1775476;79;21166;-81
2022/06/13 04:41:14;;;;;;;13.50;6.05;;;;;;;;;;1790074;79;21198;-81
2022/06/13 04:43:47;;;;;;;9.30;4.70;;;;;;;;;;1770531;81;21167;-81
2022/06/13 04:46:19;;;;;;;12.33;5.00;;;;;;;;;;1791410;79;21191;-82
2022/06/13 04:48:52;;;;;;;12.73;5.25;;;;;;;;;;1777805;79;21273;-83
2022/06/13 04:51:25;;;;;;;11.50;4.45;;;;;;;;;;1743589;81;21634;-81
2022/06/13 04:53:59;;;;;;;9.55;5.40;;;;;;;;;;1774070;80;21175;-81
2022/06/13 04:56:33;;;;;;;10.38;4.67;;;;;;;;;;1766639;79;21356;-82
2022/06/13 04:59:08;;;;;;;10.45;5.67;;;;;;;;;;1731654;82;21110;-81
2022/06/13 05:01:42;;;;;;;11.05;4.97;;;;;;;;;;1775278;79;21163;-82
2022/06/13 05:04:19;;;;;;;8.55;5.03;;;;;;;;;;1769110;80;21619;-81
2022/06/13 05:06:52;;;;;;;10.53;6.12;;;;;;;;;;1771003;80;21214;-82
2022/06/13 05:09:27;;;;;;;11.18;4.97;;;;;;;;;;1785064;79;21267;-82
2022/06/13 05:12:04;;;;;;;13.60;5.75;;;;;;;;;;1777879;80;21150;-82
2022/06/13 05:14:36;;;;;;;12.25;4.90;;;;;;;;;;1779108;79;21189;-81
2022/06/13 05:17:07;;;;;;;14.28;5.05;;;;;;;;;;1782177;78;21125;-81
2022/06/13 05:19:41;;;;;;;11.12;4.67;;;;;;;;;;1782863;79;21095;-81
2022/06/13 05:22:12;;;;;;;12.05;5.03;;;;;;;;;;1750216;81;21202;-82
2022/06/13 05:24:45;;;;;;;8.70;4.78;;;;;;;;;;1765280;80;21161;-82
2022/06/13 05:27:19;;;;;;;9.23;4.20;;;;;;;;;;1783740;78;21197;-82
2022/06/13 05:29:53;;;;;;;7.70;4.40;;;;;;;;;;1752782;80;21237;-80
2022/06/13 05:32:26;;;;;;;10.20;4.70;;;;;;;;;;1751220;81;21260;-80
2022/06/13 05:35:01;;;;;;;11.00;4.55;;;;;;;;;;1743306;81;21145;-81
2022/06/13 05:37:34;;;;;;;7.70;4.47;;;;;;;;;;1774061;80;21142;-81
2022/06/13 05:40:07;;;;;;;13.30;5.00;;;;;;;;;;1784170;79;21146;-80
2022/06/13 05:42:40;;;;;;;8.20;4.47;;;;;;;;;;1782741;80;21081;-81
2022/06/13 05:45:15;;;;;;;8.50;4.97;;;;;;;;;;1779745;78;21189;-80
2022/06/13 05:47:49;;;;;;;7.47;4.22;;;;;;;;;;1761637;80;21123;-81
2022/06/13 05:50:23;;;;;;;8.85;4.25;;;;;;;;;;1790324;79;21100;-80
2022/06/13 05:52:57;;;;;;;8.05;4.28;;;;;;;;;;1783088;79;21174;-81
2022/06/13 05:55:30;;;;;;;5.50;3.87;;;;;;;;;;1782007;80;21384;-80
2022/06/13 05:58:05;;;;;;;6.70;3.80;;;;;;;;;;1775133;80;21588;-81
2022/06/13 06:00:39;;;;;;;8.83;3.95;;;;;;;;;;1753967;80;21177;-82
2022/06/13 06:03:12;;;;;;;6.40;3.62;;;;;;;;;;1782703;80;21228;-80
2022/06/13 06:05:46;;;;;;;9.18;4.17;;;;;;;;;;1784860;78;21158;-80
2022/06/13 06:08:21;;;;;;;8.25;3.90;;;;;;;;;;1749473;81;21199;-80
2022/06/13 06:10:55;;;;;;;7.10;4.00;;;;;;;;;;1785779;78;21150;-79
2022/06/13 06:13:29;;;;;;;10.30;3.80;;;;;;;;;;1799720;78;21205;-81
2022/06/13 06:16:03;;;;;;;6.33;3.50;;;;;;;;;;1800554;79;21081;-79
2022/06/13 06:18:37;;;;;;;7.17;3.42;;;;;;;;;;1790729;78;21707;-80
2022/06/13 06:21:11;;;;;;;8.60;3.98;;;;;;;;;;1792854;78;21217;-81
2022/06/13 06:23:44;;;;;;;6.45;3.40;;;;;;;;;;1804448;77;21252;-80
2022/06/13 06:26:22;;;;;;;9.00;3.80;;;;;;;;;;1808233;77;21240;-81
2022/06/13 06:28:55;;;;;;;8.25;4.17;;;;;;;;;;1807653;77;21217;-81
2022/06/13 06:31:28;;;;;;;6.42;3.72;;;;;;;;;;1814599;77;21192;-80
2022/06/13 06:34:02;;;;;;;11.15;4.40;;;;;;;;;;1814925;77;21121;-80
2022/06/13 06:36:35;;;;;;;8.25;3.80;;;;;;;;;;1817813;77;21216;-81
2022/06/13 06:39:09;;;;;;;6.75;3.50;;;;;;;;;;1788629;79;21103;-82
2022/06/13 06:41:43;;;;;;;11.00;4.05;;;;;;;;;;1803582;78;21293;-82
2022/06/13 06:44:17;;;;;;;10.40;3.65;;;;;;;;;;1792313;79;21689;-83
2022/06/13 06:46:50;;;;;;;7.75;3.62;;;;;;;;;;1805446;78;21169;-82
2022/06/13 06:49:23;;;;;;;7.45;3.98;;;;;;;;;;1786553;79;21184;-83
2022/06/13 06:51:57;;;;;;;6.58;3.85;;;;;;;;;;1777670;79;21134;-82
2022/06/13 07:02:16;;;;;;;8.60;4.25;;;;;;;;;;1748267;79;21153;-81
2022/06/13 07:04:49;;;;;;;8.20;4.15;;;;;;;;;;1811045;78;21309;-81
2022/06/13 07:07:23;;;;;;;8.23;4.15;;;;;;;;;;1825618;77;21096;-80
2022/06/13 07:09:56;;;;;;;8.88;3.90;;;;;;;;;;1839887;77;21710;-82
2022/06/13 07:12:29;;;;;;;7.00;3.30;;;;;;;;;;1838785;77;21698;-81
2022/06/13 07:15:03;;;;;;;7.70;4.30;;;;;;;;;;1842386;76;21171;-82
2022/06/13 07:17:36;;;;;;;6.45;3.10;;;;;;;;;;1842992;77;21139;-82
2022/06/13 07:20:10;;;;;;;6.05;3.47;;;;;;;;;;1840438;77;21254;-82
2022/06/13 07:22:44;;;;;;;8.60;3.58;;;;;;;;;;1813814;77;21740;-81
2022/06/13 07:25:19;;;;;;;8.35;3.95;;;;;;;;;;1775911;79;21192;-81
2022/06/13 07:27:52;;;;;;;8.68;3.42;;;;;;;;;;1788627;79;21137;-80
2022/06/13 07:30:27;;;;;;;8.50;3.60;;;;;;;;;;1812743;78;21187;-81
2022/06/13 07:33:00;;;;;;;7.28;3.15;;;;;;;;;;1762432;79;21137;-80
2022/06/13 07:35:33;;;;;;;6.90;3.42;;;;;;;;;;1799300;79;21096;-81
2022/06/13 07:38:16;;;;;;;7.47;3.58;;;;;;;;;;1777816;80;21112;-82
2022/06/13 07:40:42;;;;;;;8.20;3.77;;;;;;;;;;1784051;79;21223;-71
2022/06/13 07:43:17;;;;;;;6.35;3.70;;;;;;;;;;1786995;79;21675;-71
2022/06/13 07:45:47;;;;;;;6.33;3.35;;;;;;;;;;1791324;79;21666;-70
2022/06/13 07:48:18;;;;;;;6.05;3.08;;;;;;;;;;1780165;80;21223;-73
2022/06/13 07:50:49;;;;;;;7.53;3.60;;;;;;;;;;1799920;79;21147;-73
2022/06/13 07:53:22;;;;;;;6.85;3.25;;;;;;;;;;1820724;77;21138;-73
2022/06/13 07:55:54;;;;;;;11.12;4.30;;;;;;;;;;1844317;76;21155;-72
2022/06/13 07:58:30;;;;;;;7.67;3.58;;;;;;;;;;1840346;76;21105;-73
2022/06/13 08:01:05;;;;;;;7.35;3.80;;;;;;;;;;1842760;76;21087;-73
2022/06/13 08:03:39;;;;;;;9.78;3.70;;;;;;;;;;1841189;76;21209;-73
2022/06/13 08:06:13;;;;;;;7.10;4.03;;;;;;;;;;1840375;76;21177;-73
2022/06/13 08:08:46;;;;;;;7.78;4.28;;;;;;;;;;1847205;77;21602;-74
2022/06/13 08:11:21;;;;;;;9.95;4.50;;;;;;;;;;1840751;77;21201;-73
2022/06/13 08:13:55;;;;;;;8.20;3.33;;;;;;;;;;1802200;79;21232;-73
2022/06/13 08:16:39;;;;;;;6.03;3.67;;;;;;;;;;1786463;79;21146;-73
2022/06/13 08:19:12;;;;;;;6.70;3.72;;;;;;;;;;1782542;80;21298;-73
2022/06/13 08:21:46;;;;;;;8.13;3.75;;;;;;;;;;1815987;77;21178;-74
2022/06/13 08:24:19;;;;;;;7.22;4.28;;;;;;;;;;1839879;77;21189;-74
2022/06/13 08:26:53;;;;;;;8.20;4.10;;;;;;;;;;1829175;77;21214;-73
2022/06/13 08:29:26;;;;;;;9.48;4.10;;;;;;;;;;1823226;77;21608;-74
2022/06/13 08:32:01;;;;;;;6.03;3.70;;;;;;;;;;1783335;79;21626;-73
2022/06/13 08:34:35;;;;;;;5.13;3.53;;;;;;;;;;1790105;78;21249;-73
2022/06/13 08:37:09;;;;;;;8.35;3.75;;;;;;;;;;1820023;77;21741;-72
2022/06/13 08:39:43;;;;;;;8.88;3.95;;;;;;;;;;1780913;80;21099;-73
2022/06/13 08:42:18;;;;;;;6.58;3.87;;;;;;;;;;1782751;80;21785;-72
2022/06/13 08:44:53;;;;;;;11.73;4.35;;;;;;;;;;1768082;80;21180;-74
2022/06/13 08:47:27;;;;;;;12.23;5.70;;;;;;;;;;1829966;77;21194;-72
2022/06/13 08:50:03;;;;;;;7.97;3.85;;;;;;;;;;1824486;77;21240;-73
2022/06/13 08:52:38;;;;;;;7.47;3.80;;;;;;;;;;1825040;77;21146;-73
2022/06/13 08:55:11;;;;;;;7.25;4.80;;;;;;;;;;1822127;77;21520;-73
2022/06/13 08:57:50;;;;;;;8.03;3.87;;;;;;;;;;1820650;77;21170;-73
2022/06/13 09:00:25;;;;;;;9.43;4.22;;;;;;;;;;1842021;76;21156;-73
2022/06/13 09:03:01;;;;;;;6.70;3.83;;;;;;;;;;1842458;76;21210;-74
2022/06/13 09:05:36;;;;;;;9.78;4.58;;;;;;;;;;1851564;76;21116;-73
2022/06/13 09:08:10;;;;;;;10.03;5.12;;;;;;;;;;1837092;76;21683;-74
2022/06/13 09:10:46;;;;;;;9.20;4.67;;;;;;;;;;1834244;77;21655;-73
2022/06/13 09:13:20;;;;;;;7.40;4.08;;;;;;;;;;1831446;77;21177;-73
2022/06/13 09:15:56;;;;;;;12.67;5.37;;;;;;;;;;1836726;76;21128;-72
2022/06/13 09:18:30;;;;;;;14.60;5.45;;;;;;;;;;1827012;77;21176;-72
2022/06/13 09:21:05;;;;;;;10.43;4.70;;;;;;;;;;1827280;76;21290;-73
2022/06/13 09:23:40;;;;;;;10.70;4.65;;;;;;;;;;1831906;77;21140;-74
2022/06/13 09:26:14;;;;;;;7.75;4.00;;;;;;;;;;1834796;76;21194;-72
2022/06/13 09:28:49;;;;;;;9.48;4.00;;;;;;;;;;1805118;77;21183;-72
2022/06/13 09:31:24;;;;;;;8.10;4.10;;;;;;;;;;1821953;78;21211;-73
2022/06/13 09:33:59;;;;;;;9.23;4.60;;;;;;;;;;1780175;80;21277;-74
2022/06/13 09:36:34;;;;;;;8.28;4.12;;;;;;;;;;1790213;78;21823;-73
2022/06/13 09:39:09;;;;;;;8.05;4.10;;;;;;;;;;1788252;78;21562;-73
2022/06/13 09:41:44;;;;;;;9.40;4.40;;;;;;;;;;1805218;77;21229;-73
2022/06/13 09:44:19;;;;;;;7.97;4.55;;;;;;;;;;1825447;77;21190;-74
2022/06/13 09:46:54;;;;;;;12.15;5.12;;;;;;;;;;1807126;78;21641;-74
2022/06/13 09:49:36;;;;;;;12.03;5.90;;;;;;;;;;1792510;78;21187;-73
2022/06/13 09:52:23;;;;;;;9.90;5.33;;;;;;;;;;1868859;75;21206;-72
2022/06/13 09:54:58;;;;;;;10.18;4.92;;;;;;;;;;1857486;75;21614;-73
2022/06/13 09:57:33;;;;;;;8.08;4.60;;;;;;;;;;1859983;75;21162;-73
2022/06/13 10:00:08;;;;;;;10.65;5.10;;;;;;;;;;1862225;75;21197;-73
2022/06/13 10:02:43;;;;;;;8.90;4.35;;;;;;;;;;1868890;75;21827;-71
2022/06/13 10:05:18;;;;;;;8.93;4.53;;;;;;;;;;1861504;75;21673;-73
2022/06/13 10:07:52;;;;;;;9.70;4.45;;;;;;;;;;1823452;77;21194;-74
2022/06/13 10:10:27;;;;;;;12.47;5.00;;;;;;;;;;1815473;78;21152;-73
2022/06/13 10:13:03;;;;;;;13.07;5.90;;;;;;;;;;1812672;78;21123;-73
2022/06/13 10:15:38;;;;;;;14.28;5.05;;;;;;;;;;1818434;77;21999;-73
2022/06/13 10:18:11;;;;;;;11.55;4.22;;;;;;;;;;1851225;75;21176;-73
2022/06/13 10:20:46;;;;;;;14.03;4.20;;;;;;;;;;1859006;75;21162;-74
2022/06/13 10:23:20;;;;;;;12.00;3.80;;;;;;;;;;1863748;75;21107;-73
2022/06/13 10:25:52;;;;;;;9.83;3.50;;;;;;;;;;1871479;75;21196;-73
2022/06/13 10:28:23;;;;;;;8.83;3.20;;;;;;;;;;1864652;75;21169;-73
2022/06/13 10:30:55;;;;;;;13.20;3.22;;;;;;;;;;1858772;75;21651;-73
2022/06/13 10:33:26;;;;;;;9.15;3.60;;;;;;;;;;1862790;75;21126;-73
2022/06/13 10:35:57;;;;;;;8.43;4.83;;;;;;;;;;1864054;75;21627;-73
2022/06/13 10:38:31;;;;;;;9.53;3.60;;;;;;;;;;1869072;75;21083;-72
2022/06/13 10:41:07;;;;;;;17.92;5.60;;;;;;;;;;1856239;75;21165;-72
2022/06/13 10:43:42;;;;;;;19.10;7.35;;;;;;;;;;1868151;75;21687;-72
2022/06/13 10:46:16;;;;;;;17.20;6.93;;;;;;;;;;1862755;75;21142;-73
2022/06/13 10:48:49;;;;;;;8.50;4.22;;;;;;;;;;1862572;75;21653;-73
2022/06/13 10:51:20;;;;;;;5.55;3.80;;;;;;;;;;1869369;75;21177;-74
2022/06/13 10:53:54;;;;;;;8.68;4.50;;;30.00;99.90;;;;;;1860974;76;21114;-75
2022/06/13 10:56:27;;;;;;;9.63;4.40;;;30.10;99.90;;;;;;1860774;75;21147;-73
2022/06/13 10:58:59;;;;;;;12.70;3.90;;;29.90;99.90;;;;;;1862898;75;21135;-72
2022/06/13 11:01:34;;;;;;;7.33;3.25;;;;;;;;;;1861411;76;21541;-72
2022/06/13 11:04:09;;;;;;;11.18;4.10;;;;;;;;;;1856788;76;21138;-73
2022/06/13 11:06:42;;;;;;;8.83;3.92;;;;;;;;;;1871566;75;21099;-73
2022/06/13 11:09:16;;;;;;;11.93;4.17;;;;;;;;;;1868039;76;21587;-73
2022/06/13 11:11:51;;;;;;;9.45;4.10;;;;;;;;;;1864186;76;21171;-75
2022/06/13 11:22:37;;;;;;;5.85;3.15;;;;;;;;;;1861601;75;21144;-75
2022/06/13 11:25:01;;;;;;;8.03;3.58;;;;;;;;;;1795422;78;21181;-71
2022/06/13 11:27:42;;;;;;;9.78;3.87;;;;;;;;;;1799575;78;21284;-73
2022/06/13 11:30:11;;;;;;;7.90;4.25;;;;;;;;;;1822001;77;21150;-74
2022/06/13 11:32:48;;;;;;;9.15;5.10;;;;;;;;;;1796275;78;21839;-72
2022/06/13 11:35:24;;;;;;;;;;;;;;;;;;1804966;79;21624;-71
2022/06/13 11:38:01;;;;;;;9.18;5.17;;;;;;;;;;1814336;79;20286;-73
2022/06/13 11:40:36;;;;;;;;;;;;;;;;;;1815597;77;21170;-73
2022/06/13 11:43:12;;;;;;;8.18;4.72;;;;;;;;;;1792399;78;20524;-72
2022/06/13 11:45:51;;;;;;;8.68;4.30;;;;;;;;;;1828510;77;21134;-71
2022/06/13 11:48:24;;;;;;;10.00;4.70;;;;;;;;;;1835546;77;21161;-74
2022/06/13 11:51:07;;;;;;;10.35;4.87;;;;;;;;;;1815640;77;21146;-72
2022/06/13 11:53:44;;;;;;;10.75;5.28;;;;;;;;;;1838615;77;21118;-71
2022/06/13 11:56:20;;;;;;;10.13;5.03;;;;;;;;;;1801770;78;21427;-72
2022/06/13 11:58:58;;;;;;;10.48;6.25;;;;;;;;;;1791238;78;21096;-73
2022/06/13 12:01:32;;;;;;;11.08;6.45;;;;;;;;;;1806895;78;21200;-72
2022/06/13 12:04:07;;;;;;;9.05;6.58;;;;;;;;;;1809714;78;21161;-74
2022/06/13 12:06:43;;;;;;;11.40;7.58;;;;;;;;;;1820799;78;21121;-73
2022/06/13 12:09:18;;;;;;;12.47;6.37;;;;;;;;;;1825114;77;21122;-72
2022/06/13 12:11:52;;;;;;;13.15;5.50;;;;;;;;;;1801819;78;21083;-73
2022/06/13 12:14:27;;;;;;;13.45;5.83;;;;;;;;;;1802067;78;21142;-72
2022/06/13 12:17:00;;;;;;;8.18;5.35;;;;;;;;;;1800706;78;21208;-71
2022/06/13 12:19:35;;;;;;;10.10;5.83;;;;;;;;;;1800391;78;21632;-72
2022/06/13 12:22:10;;;;;;;8.20;5.60;;;;;;;;;;1840755;77;21074;-72
2022/06/13 12:24:44;;;;;;;10.70;5.75;;;;;;;;;;1844214;77;21181;-72
2022/06/13 12:27:19;;;;;;;11.05;5.62;;;;;;;;;;1843507;77;21095;-72
2022/06/13 12:29:54;;;;;;;16.93;7.65;;;;;;;;;;1837967;77;21235;-74
2022/06/13 12:32:28;;;;;;;14.60;6.65;;;;;;;;;;1799818;79;21193;-74
2022/06/13 12:35:06;;;;;;;10.80;6.10;;;;;;;;;;1791761;78;21191;-71
2022/06/13 12:37:43;;;;;;;16.13;6.33;;;;;;;;;;1826511;78;21101;-71
2022/06/13 12:40:18;;;;;;;14.45;6.67;;;;;;;;;;1794807;79;21138;-71
2022/06/13 12:42:53;;;;;;;9.35;6.03;;;;;;;;;;1797882;78;21201;-71
2022/06/13 12:45:29;;;;;;;13.83;6.15;;;;;;;;;;1821171;77;21174;-72
2022/06/13 12:48:05;;;;;;;15.18;6.75;;;;;;;;;;1840082;77;21775;-73
2022/06/13 12:50:37;;;;;;;11.50;6.45;;;;;;;;;;1793573;78;21114;-71
2022/06/13 12:53:11;;;;;;;8.38;5.53;;;;;;;;;;1790734;79;21177;-72
2022/06/13 12:55:46;;;;;;;10.03;5.58;;;;;;;;;;1824226;77;21145;-73
2022/06/13 12:58:19;;;;;;;9.55;5.75;;;;;;;;;;1820744;78;21142;-73
2022/06/13 13:00:54;;;;;;;12.75;5.75;;;;;;;;;;1829240;78;21107;-73
2022/06/13 13:03:29;;;;;;;9.15;5.17;;;;;;;;;;1826722;78;21125;-76
2022/06/13 13:06:06;;;;;;;7.42;5.47;;;;;;;;;;1795026;79;21142;-72
2022/06/13 13:08:41;;;;;;;8.25;5.65;;;;;;;;;;1826820;78;21071;-72
2022/06/13 13:11:15;;;;;;;10.15;5.17;;;;;;;;;;1834500;78;21244;-72
2022/06/13 13:13:46;;;;;;;9.75;5.35;;;;;;;;;;1787899;78;21221;-72
2022/06/13 13:16:20;;;;;;;11.68;6.15;;;;;;;;;;1827909;77;21727;-73
2022/06/13 13:18:54;;;;;;;8.15;5.67;;;;;;;;;;1780484;79;21127;-72
2022/06/13 13:21:26;;;;;;;12.55;5.58;;;;;;;;;;1792585;79;21596;-72
2022/06/13 13:23:59;;;;;;;8.03;5.10;;;;;;;;;;1779888;79;21167;-71
2022/06/13 13:26:32;;;;;;;8.85;5.30;;;;;;;;;;1788280;79;21159;-81
2022/06/13 13:29:05;;;;;;;12.65;5.95;;;;;;;;;;1788564;78;21086;-82
2022/06/13 13:31:39;;;;;;;11.68;5.90;;;;;;;;;;1790408;79;21149;-84
2022/06/13 13:34:15;;;;;;;10.88;6.50;;;;;;;;;;1753535;81;21144;-82
2022/06/13 13:36:48;;;;;;;13.70;6.40;;;;;;;;;;1789356;78;21232;-83
2022/06/13 13:39:22;;;;;;;14.68;6.45;;;;;;;;;;1788336;78;21635;-83
2022/06/13 13:41:54;;;;;;;13.95;6.45;;;;;;;;;;1789586;79;21138;-82
2022/06/13 13:44:27;;;;;;;13.18;7.62;;;;;;;;;;1775164;79;21152;-82
2022/06/13 13:47:01;;;;;;;12.95;7.20;;;;;;;;;;1758683;80;21103;-83
2022/06/13 13:49:34;;;;;;;13.25;7.65;;;;;;;;;;1762303;80;21145;-83
2022/06/13 13:52:09;;;;;;;16.65;8.65;;;;;;;;;;1786001;79;21633;-82
2022/06/13 13:54:43;;;;;;;13.95;7.47;;;;;;;;;;1783095;79;21169;-84
2022/06/13 13:57:16;;;;;;;14.40;7.70;;;;;;;;;;1782353;80;21173;-83
2022/06/13 13:59:52;;;;;;;14.60;7.13;;;;;;;;;;1795390;78;21079;-83
2022/06/13 14:02:26;;;;;;;13.53;7.65;;;;;;;;;;1794782;78;21141;-82
2022/06/13 14:05:00;;;;;;;13.08;7.53;;;;;;;;;;1793227;78;21162;-83
2022/06/13 14:07:33;;;;;;;15.50;7.12;;;;;;;;;;1724241;82;21162;-82
2022/06/13 14:10:05;;;;;;;14.80;7.85;;;;;;;;;;1770942;79;21562;-83
2022/06/13 14:12:40;;;;;;;12.70;8.00;;;;;;;;;;1753167;80;21194;-82
2022/06/13 14:15:16;;;;;;;14.38;7.58;;;;;;;;;;1744733;81;21224;-82
2022/06/13 14:17:48;;;;;;;12.70;7.33;;;;;;;;;;1787916;78;21157;-83
2022/06/13 14:20:21;;;;;;;12.90;6.55;;;;;;;;;;1762854;78;21189;-84
2022/06/13 14:22:54;;;;;;;13.62;6.08;;;;;;;;;;1792477;78;21115;-83
2022/06/13 14:25:28;;;;;;;11.68;5.78;;;;;;;;;;1789188;78;21125;-83
2022/06/13 14:28:00;;;;;;;10.25;5.78;;;;;;;;;;1792773;78;21212;-83
2022/06/13 14:33:08;;;;;;;10.65;5.92;;;;;;;;;;1815153;78;21141;-83
2022/06/13 14:35:40;;;;;;;7.60;5.05;;;;;;;;;;1827554;78;21165;-84
2022/06/13 14:38:19;;;;;;;11.25;6.22;;;;;;;;;;1818248;78;21103;-81
2022/06/13 14:40:57;;;;;;;9.55;6.08;;;;;;;;;;1803725;79;21142;-83
2022/06/13 14:43:32;;;;;;;9.88;5.12;;;;;;;;;;1808261;79;21186;-85
2022/06/13 14:46:24;;;;;;;11.68;5.10;;;;;;;;;;1811068;79;21504;-82
2022/06/13 14:48:58;;;;;;;10.53;4.83;;;;;;;;;;1806274;78;21146;-82
2022/06/13 14:51:31;;;;;;;11.08;5.40;;;;;;;;;;1813053;79;21134;-84
2022/06/13 14:54:05;;;;;;;8.95;4.75;;;;;;;;;;1804552;78;21087;-83
2022/06/13 14:57:05;;;;;;;11.40;4.95;;;;;;;;;;1819333;78;21110;-83
2022/06/13 14:59:26;;;;;;;14.15;5.65;;;;;;;;;;1806004;79;21135;-83
2022/06/13 15:02:10;;;;;;;;;;;;;;;;;;;;;
2022/06/13 15:04:41;;;;;;;8.00;5.00;;;;;;;;;;1806116;79;21176;-82
2022/06/13 15:07:15;;;;;;;10.65;5.95;;;;;;;;;;1802660;79;21123;-83
2022/06/13 15:09:51;;;;;;;9.98;5.25;;;;;;;;;;1800799;79;21141;-84
2022/06/13 15:12:24;;;;;;;9.10;5.45;;;;;;;;;;1803236;78;21150;-83
2022/06/13 15:14:58;;;;;;;8.48;5.67;;;;;;;;;;1809893;79;21214;-83
2022/06/13 15:17:33;;;;;;;9.25;5.78;;;;;;;;;;1802976;77;22012;-82
2022/06/13 15:20:06;;;;;;;9.45;5.72;;;;;;;;;;1814830;79;21192;-84
2022/06/13 15:22:40;;;;;;;7.60;5.33;;;;;;;;;;1805864;78;21226;-83
2022/06/13 15:25:12;;;;;;;11.45;6.17;;;;;;;;;;1805395;79;21139;-82
2022/06/13 15:27:47;;;;;;;10.20;6.50;;;;;;;;;;1801021;79;21103;-83
2022/06/13 15:30:21;;;;;;;10.85;6.53;;;;;;;;;;1797109;79;21166;-83
2022/06/13 15:33:03;;;;;;;11.18;6.62;;;;;;;;;;1791171;79;21194;-83